Time;durP1;ratioP1;P1;durP2;ratioP2;P2;SDS_P1;SDS_P2;PMS_P1;PMS_P2;Temp;Humidity;BMP_temperature;BMP_pressure;BME280_temperature;BME280_humidity;BME280_pressure;Samples;Min_cycle;Max_cycle;Signal;HPM_P1;HPM_P2
2023/02/02 00:01:16;;;;;;;17.90;3.73;;;5.80;99.90;;;;;;5020735;28;20188;-46
2023/02/02 00:03:43;;;;;;;17.27;3.60;;;5.80;99.90;;;;;;5012098;27;20207;-57
2023/02/02 00:06:10;;;;;;;17.77;3.33;;;5.80;99.90;;;;;;5019248;28;20443;-48
2023/02/02 00:08:38;;;;;;;21.37;4.13;;;5.80;99.90;;;;;;5022400;28;20215;-46
2023/02/02 00:11:05;;;;;;;14.93;4.20;;;5.80;99.90;;;;;;5018427;28;20277;-48
2023/02/02 00:13:32;;;;;;;21.17;3.23;;;5.80;99.90;;;;;;5015760;28;20215;-52
2023/02/02 00:15:59;;;;;;;22.20;4.30;;;5.80;99.90;;;;;;5012822;28;20242;-59
2023/02/02 00:18:27;;;;;;;20.00;4.53;;;5.80;99.90;;;;;;5018737;28;20204;-46
2023/02/02 00:20:54;;;;;;;15.97;3.30;;;5.80;99.90;;;;;;5030040;27;20215;-56
2023/02/02 00:23:21;;;;;;;24.57;3.87;;;5.80;99.90;;;;;;5020534;28;20192;-47
2023/02/02 00:25:50;;;;;;;29.37;4.23;;;5.80;99.90;;;;;;5021550;28;20228;-58
2023/02/02 00:28:17;;;;;;;18.73;3.97;;;5.80;99.90;;;;;;5013512;28;20219;-49
2023/02/02 00:30:44;;;;;;;19.17;4.40;;;5.80;99.90;;;;;;5021163;28;20196;-56
2023/02/02 00:33:10;;;;;;;20.97;3.70;;;5.80;99.90;;;;;;5019298;28;20199;-48
2023/02/02 00:35:42;;;;;;;23.70;4.00;;;5.80;99.90;;;;;;5010188;27;20219;-47
2023/02/02 00:38:09;;;;;;;17.50;3.50;;;5.90;99.90;;;;;;5017273;28;20203;-48
2023/02/02 00:40:36;;;;;;;19.10;3.40;;;5.90;99.90;;;;;;5022753;28;20204;-47
2023/02/02 00:43:25;;;;;;;18.20;3.57;;;5.90;99.90;;;;;;5022445;28;20211;-47
2023/02/02 00:45:51;;;;;;;17.17;3.53;;;5.90;99.90;;;;;;5013531;28;20223;-58
2023/02/02 00:48:18;;;;;;;15.00;3.00;;;5.90;99.90;;;;;;5019749;28;20287;-47
2023/02/02 00:50:46;;;;;;;20.43;3.13;;;5.90;99.90;;;;;;5054060;27;20695;-50
2023/02/02 00:53:13;;;;;;;18.33;2.97;;;5.90;99.90;;;;;;5018650;28;20204;-57
2023/02/02 00:55:40;;;;;;;16.10;2.60;;;5.90;99.90;;;;;;5024515;28;20231;-55
2023/02/02 00:58:07;;;;;;;15.70;2.50;;;5.90;99.90;;;;;;5018683;28;20211;-57
2023/02/02 01:00:34;;;;;;;17.90;3.87;;;5.90;99.90;;;;;;5010469;28;20223;-57
2023/02/02 01:03:03;;;;;;;11.03;2.70;;;5.90;99.90;;;;;;5023144;28;20237;-56
2023/02/02 01:05:30;;;;;;;15.07;2.93;;;5.90;99.90;;;;;;5002308;27;20244;-50
2023/02/02 01:07:58;;;;;;;18.50;3.27;;;5.90;99.90;;;;;;5020765;28;20204;-58
2023/02/02 01:10:25;;;;;;;10.77;2.30;;;5.90;99.90;;;;;;5018715;28;20214;-49
2023/02/02 01:12:54;;;;;;;15.90;3.23;;;5.90;99.90;;;;;;5023328;28;20212;-56
2023/02/02 01:15:21;;;;;;;16.97;3.17;;;5.80;99.90;;;;;;5015263;28;20216;-53
2023/02/02 01:17:49;;;;;;;21.13;2.63;;;5.80;99.90;;;;;;5021667;28;20287;-58
2023/02/02 01:20:18;;;;;;;19.90;2.83;;;5.70;99.90;;;;;;5047586;27;20215;-50
2023/02/02 01:22:45;;;;;;;13.97;3.73;;;5.70;99.90;;;;;;5023079;27;20200;-58
2023/02/02 01:25:14;;;;;;;15.73;3.33;;;5.60;99.90;;;;;;5029587;28;20245;-55
2023/02/02 01:27:41;;;;;;;19.23;3.47;;;5.60;99.90;;;;;;5026638;28;20199;-58
2023/02/02 01:30:09;;;;;;;19.20;2.80;;;5.60;99.90;;;;;;5020213;28;20222;-56
2023/02/02 01:32:36;;;;;;;23.63;3.60;;;5.60;99.90;;;;;;5016525;28;20216;-56
2023/02/02 01:35:03;;;;;;;19.03;3.43;;;5.50;99.90;;;;;;5021251;28;20223;-57
2023/02/02 01:37:30;;;;;;;22.73;3.97;;;5.50;99.90;;;;;;5006463;27;20279;-52
2023/02/02 01:39:57;;;;;;;17.37;3.03;;;5.50;99.90;;;;;;5021642;28;20200;-53
2023/02/02 01:42:25;;;;;;;16.23;2.77;;;5.50;99.90;;;;;;5017844;28;20695;-52
2023/02/02 01:45:16;;;;;;;15.87;2.80;;;5.60;99.90;;;;;;5020389;28;20212;-58
2023/02/02 01:47:47;;;;;;;11.60;2.17;;;5.60;99.90;;;;;;5013629;28;20215;-57
2023/02/02 01:50:16;;;;;;;17.43;2.67;;;5.50;99.90;;;;;;5026203;27;20200;-52
2023/02/02 01:52:46;;;;;;;12.40;2.50;;;5.60;99.90;;;;;;5007484;27;20231;-53
2023/02/02 01:55:17;;;;;;;17.87;3.07;;;5.60;99.90;;;;;;5021686;28;20216;-52
2023/02/02 01:57:49;;;;;;;16.17;2.47;;;5.60;99.90;;;;;;5018025;28;20210;-56
2023/02/02 02:00:23;;;;;;;12.80;2.77;;;5.60;99.90;;;;;;4999869;28;20232;-48
2023/02/02 02:02:53;;;;;;;14.00;2.80;;;5.60;99.90;;;;;;5017087;28;20922;-53
2023/02/02 02:05:27;;;;;;;14.13;2.30;;;5.60;99.90;;;;;;5019576;28;20590;-48
2023/02/02 02:07:57;;;;;;;15.30;3.40;;;5.60;99.90;;;;;;5009163;27;20235;-52
2023/02/02 02:10:25;;;;;;;13.53;2.50;;;5.50;99.90;;;;;;5017153;28;20231;-52
2023/02/02 02:12:53;;;;;;;15.60;2.60;;;5.50;99.90;;;;;;5019861;28;20228;-54
2023/02/02 02:18:16;;;;;;;12.07;2.67;;;5.40;99.90;;;;;;5014063;28;20726;-54
2023/02/02 02:28:34;;;;;;;6.90;1.67;;;5.40;99.90;;;;;;5025845;28;20203;-57
2023/02/02 02:31:24;;;;;;;9.57;1.67;;;5.40;99.90;;;;;;5017908;28;20693;-58
2023/02/02 02:33:57;;;;;;;16.77;3.67;;;5.40;99.90;;;;;;5012394;28;20200;-58
2023/02/02 02:36:34;;;;;;;7.13;1.40;;;5.40;99.90;;;;;;5017057;28;20880;-54
2023/02/02 02:39:09;;;;;;;14.63;1.70;;;5.30;99.90;;;;;;5006724;27;20306;-58
2023/02/02 02:41:41;;;;;;;15.23;2.10;;;5.30;99.90;;;;;;5016908;28;20538;-57
2023/02/02 02:44:10;;;;;;;8.67;2.30;;;5.30;99.90;;;;;;5020571;28;20247;-52
2023/02/02 02:46:38;;;;;;;10.43;2.27;;;5.30;99.90;;;;;;5016042;28;20223;-54
2023/02/02 02:49:09;;;;;;;13.77;2.27;;;5.30;99.90;;;;;;5013886;28;20192;-56
2023/02/02 02:51:42;;;;;;;11.10;2.23;;;5.30;99.90;;;;;;5014664;28;20889;-51
2023/02/02 02:54:14;;;;;;;20.50;2.70;;;5.30;99.90;;;;;;5006277;27;20273;-57
2023/02/02 02:56:55;;;;;;;12.97;2.00;;;5.30;99.90;;;;;;5012971;28;20207;-56
2023/02/02 02:59:34;;;;;;;16.30;3.17;;;5.30;99.90;;;;;;5014678;28;20648;-52
2023/02/02 03:02:15;;;;;;;15.47;2.43;;;5.30;99.90;;;;;;5020807;28;20226;-53
2023/02/02 03:04:55;;;;;;;14.87;2.80;;;5.30;99.90;;;;;;5009946;28;20318;-55
2023/02/02 03:07:28;;;;;;;8.13;2.30;;;5.30;99.90;;;;;;5012382;28;20583;-49
2023/02/02 03:09:58;;;;;;;5.00;1.00;;;5.20;99.90;;;;;;5005626;28;20196;-56
2023/02/02 03:12:25;;;;;;;6.03;1.30;;;4.90;99.90;;;;;;5017802;28;20682;-51
2023/02/02 03:14:52;;;;;;;7.53;1.83;;;4.70;99.90;;;;;;5018813;28;20216;-57
2023/02/02 03:17:19;;;;;;;6.20;1.40;;;4.60;99.90;;;;;;5019213;28;20206;-50
2023/02/02 03:20:10;;;;;;;6.97;1.30;;;4.50;99.90;;;;;;5016911;27;20359;-56
2023/02/02 03:22:37;;;;;;;8.33;1.37;;;4.50;99.90;;;;;;5015307;28;20208;-53
2023/02/02 03:25:04;;;;;;;5.73;1.30;;;4.50;99.90;;;;;;5014956;27;20227;-56
2023/02/02 03:27:30;;;;;;;11.00;1.43;;;4.60;99.90;;;;;;5016106;28;20216;-51
2023/02/02 03:29:58;;;;;;;8.57;1.10;;;4.60;99.90;;;;;;5020156;28;20590;-55
2023/02/02 03:32:25;;;;;;;6.67;1.00;;;4.60;99.90;;;;;;5017648;28;20200;-49
2023/02/02 03:34:52;;;;;;;6.67;1.30;;;4.60;99.90;;;;;;5011806;28;20228;-54
2023/02/02 03:37:21;;;;;;;12.53;1.27;;;4.70;99.90;;;;;;5018607;28;20196;-52
2023/02/02 03:39:47;;;;;;;8.40;1.17;;;4.70;99.90;;;;;;5021174;28;20201;-55
2023/02/02 03:42:14;;;;;;;5.17;1.50;;;4.70;99.90;;;;;;5008329;28;20196;-53
2023/02/02 03:44:41;;;;;;;4.17;1.77;;;4.70;99.90;;;;;;5016584;28;20208;-52
2023/02/02 03:47:08;;;;;;;7.47;1.57;;;4.70;99.90;;;;;;5019802;28;20632;-55
2023/02/02 03:49:35;;;;;;;11.57;1.83;;;4.70;99.90;;;;;;5031652;28;20195;-57
2023/02/02 03:52:03;;;;;;;7.53;1.50;;;4.70;99.90;;;;;;5013028;28;20300;-55
2023/02/02 03:54:32;;;;;;;13.53;2.10;;;4.80;99.90;;;;;;5016289;28;20224;-50
2023/02/02 03:56:59;;;;;;;16.13;1.87;;;4.90;99.90;;;;;;5014997;28;20193;-56
2023/02/02 03:59:26;;;;;;;14.73;1.87;;;4.90;99.90;;;;;;5017036;28;20212;-48
2023/02/02 04:01:53;;;;;;;13.67;1.73;;;4.90;99.90;;;;;;5019305;28;20694;-56
2023/02/02 04:04:19;;;;;;;6.73;1.63;;;5.00;99.90;;;;;;5018272;28;20215;-49
2023/02/02 04:06:46;;;;;;;13.67;1.67;;;5.00;99.90;;;;;;5012872;28;20219;-53
2023/02/02 04:09:13;;;;;;;7.53;1.77;;;5.00;99.90;;;;;;5019747;28;20207;-50
2023/02/02 04:11:41;;;;;;;8.23;1.23;;;5.00;99.90;;;;;;5002430;28;20212;-52
2023/02/02 04:14:09;;;;;;;10.23;1.80;;;5.10;99.90;;;;;;5017337;28;20219;-54
2023/02/02 04:16:36;;;;;;;10.77;2.10;;;5.10;99.90;;;;;;5015689;28;20188;-54
2023/02/02 04:19:03;;;;;;;15.60;2.73;;;5.10;99.90;;;;;;5035073;28;20192;-54
2023/02/02 04:21:30;;;;;;;13.53;1.93;;;5.10;99.90;;;;;;5018319;27;20204;-52
2023/02/02 04:23:57;;;;;;;12.37;2.37;;;5.10;99.90;;;;;;5018741;28;20675;-56
2023/02/02 04:26:25;;;;;;;6.53;1.67;;;5.10;99.90;;;;;;5017195;28;20208;-49
2023/02/02 04:28:54;;;;;;;9.13;1.63;;;5.10;99.90;;;;;;5006050;28;20223;-57
2023/02/02 04:31:21;;;;;;;10.97;1.33;;;5.10;99.90;;;;;;5017967;28;20207;-47
2023/02/02 04:33:48;;;;;;;6.63;1.77;;;5.10;99.90;;;;;;5007340;28;20235;-53
2023/02/02 04:36:15;;;;;;;7.47;1.50;;;5.10;99.90;;;;;;5011236;28;20196;-48
2023/02/02 04:38:41;;;;;;;11.63;1.57;;;5.10;99.90;;;;;;5020245;28;20212;-55
2023/02/02 04:41:10;;;;;;;11.33;1.87;;;5.00;99.90;;;;;;5020495;28;20660;-51
2023/02/02 04:43:37;;;;;;;9.77;2.47;;;5.00;99.90;;;;;;5009464;27;20212;-55
2023/02/02 04:46:06;;;;;;;9.20;1.83;;;5.00;99.90;;;;;;5020581;28;20709;-51
2023/02/02 04:48:32;;;;;;;6.00;0.83;;;5.00;99.90;;;;;;5020902;28;20200;-55
2023/02/02 04:51:00;;;;;;;10.00;1.80;;;5.10;99.90;;;;;;5022531;27;20200;-49
2023/02/02 04:53:27;;;;;;;12.03;1.90;;;5.10;99.90;;;;;;5013425;28;20282;-58
2023/02/02 04:55:54;;;;;;;12.37;1.83;;;5.10;99.90;;;;;;5022106;28;20261;-56
2023/02/02 04:58:22;;;;;;;7.53;2.07;;;5.10;99.90;;;;;;5018740;28;20192;-55
2023/02/02 05:00:48;;;;;;;14.33;2.13;;;5.10;99.90;;;;;;5017304;27;20557;-55
2023/02/02 05:03:17;;;;;;;8.67;2.10;;;5.10;99.90;;;;;;5011710;28;20220;-50
2023/02/02 05:05:43;;;;;;;11.43;1.97;;;5.10;99.90;;;;;;5020742;28;20258;-53
2023/02/02 05:08:10;;;;;;;5.93;1.43;;;5.10;99.90;;;;;;5012621;28;20204;-47
2023/02/02 05:10:40;;;;;;;12.40;1.70;;;5.10;99.90;;;;;;5023912;28;20245;-52
2023/02/02 05:13:07;;;;;;;12.63;2.47;;;5.10;99.90;;;;;;5016970;28;20257;-49
2023/02/02 05:15:54;;;;;;;12.43;1.80;;;5.10;99.90;;;;;;5005128;27;20840;-53
2023/02/02 05:18:24;;;;;;;8.57;2.27;;;5.10;99.90;;;;;;5016387;28;20249;-54
2023/02/02 05:20:51;;;;;;;14.17;2.33;;;5.10;99.90;;;;;;5023573;27;20281;-53
2023/02/02 05:23:21;;;;;;;7.63;2.00;;;5.00;99.90;;;;;;5010092;28;20212;-57
2023/02/02 05:25:52;;;;;;;11.97;2.50;;;5.10;99.90;;;;;;5020414;28;20224;-52
2023/02/02 05:28:19;;;;;;;10.53;1.77;;;5.10;99.90;;;;;;5014405;28;20196;-54
2023/02/02 05:30:46;;;;;;;8.97;1.97;;;5.00;99.90;;;;;;5010370;27;20208;-55
2023/02/02 05:33:13;;;;;;;7.50;1.67;;;5.10;99.90;;;;;;5015845;28;20203;-51
2023/02/02 05:35:41;;;;;;;8.30;1.70;;;5.10;99.90;;;;;;5014721;28;20224;-53
2023/02/02 05:38:08;;;;;;;9.17;1.63;;;5.10;99.90;;;;;;5002204;28;20200;-50
2023/02/02 05:40:35;;;;;;;9.90;2.00;;;5.00;99.90;;;;;;5013868;28;20192;-55
2023/02/02 05:43:02;;;;;;;8.27;1.90;;;5.00;99.90;;;;;;5009846;28;20992;-51
2023/02/02 05:45:29;;;;;;;13.97;2.00;;;5.00;99.90;;;;;;4998118;27;20259;-57
2023/02/02 05:47:56;;;;;;;9.70;2.00;;;5.00;99.90;;;;;;5010637;28;20228;-54
2023/02/02 05:50:22;;;;;;;12.23;1.97;;;5.00;99.90;;;;;;5016908;28;20195;-54
2023/02/02 05:53:03;;;;;;;12.00;2.73;;;5.10;99.90;;;;;;5016532;28;20295;-50
2023/02/02 05:55:29;;;;;;;15.13;2.47;;;5.10;99.90;;;;;;5011536;28;20220;-55
2023/02/02 05:57:56;;;;;;;12.87;2.13;;;5.00;99.90;;;;;;5020178;28;20219;-54
2023/02/02 06:00:23;;;;;;;13.93;2.20;;;5.10;99.90;;;;;;5005303;27;20246;-55
2023/02/02 06:02:49;;;;;;;13.87;2.23;;;5.10;99.90;;;;;;5012550;28;20291;-54
2023/02/02 06:05:16;;;;;;;12.93;2.30;;;5.10;99.90;;;;;;5008935;28;20220;-52
2023/02/02 06:07:43;;;;;;;12.50;2.20;;;5.10;99.90;;;;;;5011397;28;20218;-53
2023/02/02 06:10:12;;;;;;;12.70;2.40;;;5.10;99.90;;;;;;5006978;28;20216;-52
2023/02/02 06:12:39;;;;;;;16.83;2.70;;;5.10;99.90;;;;;;5015169;28;20185;-52
2023/02/02 06:15:06;;;;;;;10.70;2.60;;;5.10;99.90;;;;;;5008428;28;20224;-51
2023/02/02 06:17:33;;;;;;;14.77;2.30;;;5.00;99.90;;;;;;5006887;27;20201;-51
2023/02/02 06:20:00;;;;;;;9.87;1.90;;;5.00;99.90;;;;;;5009691;28;20563;-52
2023/02/02 06:22:26;;;;;;;12.33;2.13;;;5.00;99.90;;;;;;5014100;28;20675;-53
2023/02/02 06:24:53;;;;;;;12.43;2.47;;;5.10;99.90;;;;;;5013115;28;20293;-54
2023/02/02 06:27:21;;;;;;;11.73;2.20;;;5.10;99.90;;;;;;5006339;28;20228;-52
2023/02/02 06:29:48;;;;;;;11.90;2.83;;;5.00;99.90;;;;;;5010906;28;20207;-53
2023/02/02 06:32:15;;;;;;;17.03;2.60;;;5.10;99.90;;;;;;5001244;28;20204;-51
2023/02/02 06:34:42;;;;;;;12.87;2.23;;;5.10;99.90;;;;;;5011909;28;20232;-49
2023/02/02 06:37:12;;;;;;;18.40;2.20;;;5.10;99.90;;;;;;5010816;28;20287;-52
2023/02/02 06:39:39;;;;;;;13.97;2.33;;;5.20;99.90;;;;;;5013093;28;20667;-50
2023/02/02 06:42:06;;;;;;;12.07;2.10;;;5.20;99.90;;;;;;5008432;28;20269;-49
2023/02/02 06:44:34;;;;;;;9.67;2.00;;;5.20;99.90;;;;;;5010091;28;20211;-53
2023/02/02 06:47:01;;;;;;;9.90;2.53;;;5.20;99.90;;;;;;5003431;27;20248;-53
2023/02/02 06:49:28;;;;;;;10.70;2.07;;;5.20;99.90;;;;;;5008376;28;20227;-53
2023/02/02 06:51:55;;;;;;;12.90;2.10;;;5.20;99.90;;;;;;5011312;28;20205;-50
2023/02/02 06:54:22;;;;;;;12.73;2.30;;;5.20;99.90;;;;;;5012259;28;20243;-49
2023/02/02 06:56:49;;;;;;;8.27;1.67;;;5.20;99.90;;;;;;5002738;28;20215;-54
2023/02/02 06:59:37;;;;;;;12.47;2.20;;;5.20;99.90;;;;;;5004216;28;20270;-51
2023/02/02 07:02:03;;;;;;;7.67;1.77;;;5.20;99.90;;;;;;5006157;27;20209;-50
2023/02/02 07:04:30;;;;;;;11.17;1.53;;;5.10;99.90;;;;;;5010285;28;20219;-52
2023/02/02 07:06:57;;;;;;;11.17;1.40;;;5.20;99.90;;;;;;5019186;28;20212;-50
2023/02/02 07:09:24;;;;;;;6.77;1.53;;;5.10;99.90;;;;;;5006711;27;20196;-53
2023/02/02 07:11:51;;;;;;;7.40;1.00;;;5.10;99.90;;;;;;5013157;28;20219;-50
2023/02/02 07:14:18;;;;;;;6.60;1.33;;;5.10;99.90;;;;;;5016078;28;20220;-52
2023/02/02 07:16:46;;;;;;;6.27;1.70;;;5.10;99.90;;;;;;5020062;28;20200;-50
2023/02/02 07:19:12;;;;;;;7.67;1.53;;;5.10;99.90;;;;;;5005028;27;20233;-49
2023/02/02 07:21:39;;;;;;;8.10;1.47;;;5.10;99.90;;;;;;5012087;28;20591;-52
2023/02/02 07:24:07;;;;;;;9.37;1.70;;;5.00;99.90;;;;;;5003938;28;20276;-51
2023/02/02 07:26:36;;;;;;;12.27;2.37;;;5.00;99.90;;;;;;5003207;28;20216;-49
2023/02/02 07:29:03;;;;;;;7.87;1.17;;;5.00;99.90;;;;;;5018519;28;20200;-50
2023/02/02 07:31:30;;;;;;;6.87;1.60;;;5.00;99.90;;;;;;5022167;28;20207;-51
2023/02/02 07:33:58;;;;;;;8.40;1.83;;;5.00;99.90;;;;;;5009252;28;20199;-49
2023/02/02 07:36:25;;;;;;;6.97;1.20;;;5.00;99.90;;;;;;5017534;28;20603;-58
2023/02/02 07:38:54;;;;;;;4.13;1.00;;;5.00;99.90;;;;;;5006209;28;20204;-59
2023/02/02 07:41:21;;;;;;;7.57;1.60;;;5.00;99.90;;;;;;5015923;28;20654;-49
2023/02/02 07:43:49;;;;;;;8.70;1.80;;;5.00;99.90;;;;;;5007110;28;20306;-50
2023/02/02 07:46:17;;;;;;;8.17;1.77;;;5.00;99.90;;;;;;5009016;28;20196;-49
2023/02/02 07:48:43;;;;;;;10.70;2.20;;;5.10;99.90;;;;;;5003795;28;20224;-50
2023/02/02 07:51:14;;;;;;;9.83;1.43;;;5.10;99.90;;;;;;5016085;28;20231;-50
2023/02/02 07:53:44;;;;;;;10.23;2.10;;;5.10;99.90;;;;;;5013723;28;20203;-52
2023/02/02 07:56:12;;;;;;;14.63;2.00;;;5.10;99.90;;;;;;5008228;28;20281;-50
2023/02/02 07:58:39;;;;;;;7.50;2.03;;;5.10;99.90;;;;;;4994106;28;20264;-53
2023/02/02 08:01:08;;;;;;;8.90;1.80;;;5.10;99.90;;;;;;5017333;28;20257;-52
2023/02/02 08:03:36;;;;;;;15.13;2.27;;;5.10;99.90;;;;;;4998502;28;20743;-50
2023/02/02 08:06:10;;;;;;;7.00;1.70;;;5.10;99.90;;;;;;5005120;28;20239;-53
2023/02/02 08:08:38;;;;;;;11.30;2.20;;;5.10;99.90;;;;;;5039245;27;20637;-53
2023/02/02 08:11:07;;;;;;;15.47;2.10;;;5.10;99.90;;;;;;5023001;28;20706;-50
2023/02/02 08:13:34;;;;;;;4.30;1.60;;;5.20;99.90;;;;;;5033429;27;20265;-51
2023/02/02 08:16:02;;;;;;;9.23;2.07;;;5.10;99.90;;;;;;5019369;28;20231;-52
2023/02/02 08:18:28;;;;;;;14.23;2.10;;;5.10;99.90;;;;;;5022303;28;20261;-53
2023/02/02 08:20:58;;;;;;;9.27;2.30;;;5.20;99.90;;;;;;5003754;27;20192;-49
2023/02/02 08:23:25;;;;;;;7.07;1.87;;;5.20;99.90;;;;;;5021570;27;20224;-50
2023/02/02 08:25:54;;;;;;;13.20;2.53;;;5.20;99.90;;;;;;5012034;28;21328;-51
2023/02/02 08:28:21;;;;;;;10.67;2.27;;;5.20;99.90;;;;;;5010478;28;20772;-49
2023/02/02 08:30:48;;;;;;;7.43;1.73;;;5.20;99.90;;;;;;5011029;28;20196;-48
2023/02/02 08:33:17;;;;;;;13.13;1.70;;;5.20;99.90;;;;;;5024642;27;20200;-48
2023/02/02 08:35:45;;;;;;;10.07;1.70;;;5.20;99.90;;;;;;5028653;27;20229;-51
2023/02/02 08:38:13;;;;;;;16.37;2.73;;;5.30;99.90;;;;;;5021498;27;20207;-51
2023/02/02 08:40:39;;;;;;;10.33;2.37;;;5.30;99.90;;;;;;5005837;28;20197;-54
2023/02/02 08:43:07;;;;;;;11.93;2.13;;;5.40;99.90;;;;;;5008961;28;20244;-50
2023/02/02 08:45:34;;;;;;;17.03;2.17;;;5.40;99.90;;;;;;5019235;28;20226;-52
2023/02/02 08:48:00;;;;;;;9.80;2.03;;;5.50;99.90;;;;;;5016986;28;20216;-49
2023/02/02 08:50:27;;;;;;;8.80;2.00;;;5.50;99.90;;;;;;5027327;27;20275;-53
2023/02/02 08:52:54;;;;;;;9.03;1.70;;;5.60;99.90;;;;;;5003333;27;20204;-53
2023/02/02 08:55:20;;;;;;;12.73;2.57;;;5.60;99.90;;;;;;5021160;28;20220;-52
2023/02/02 08:57:47;;;;;;;10.07;2.00;;;5.70;99.90;;;;;;5000330;28;23958;-49
2023/02/02 09:00:17;;;;;;;13.23;1.80;;;5.80;99.90;;;;;;5010422;28;20196;-48
2023/02/02 09:02:44;;;;;;;9.57;1.97;;;5.90;99.90;;;;;;5001810;28;20204;-52
2023/02/02 09:05:10;;;;;;;5.97;1.33;;;5.90;99.90;;;;;;5011508;27;20215;-50
2023/02/02 09:07:37;;;;;;;5.83;1.43;;;5.90;99.90;;;;;;4988774;27;20212;-53
2023/02/02 09:10:04;;;;;;;12.70;2.70;;;6.00;99.90;;;;;;5003992;28;20196;-52
2023/02/02 09:12:31;;;;;;;10.37;1.83;;;6.10;99.90;;;;;;5006578;28;20280;-51
2023/02/02 09:14:58;;;;;;;6.63;1.60;;;6.10;99.90;;;;;;5009193;28;20228;-49
2023/02/02 09:17:28;;;;;;;8.27;1.70;;;6.20;99.90;;;;;;5014365;28;20200;-51
2023/02/02 09:19:55;;;;;;;8.13;1.30;;;6.30;99.90;;;;;;5002150;28;20208;-48
2023/02/02 09:22:23;;;;;;;5.67;1.63;;;6.40;99.90;;;;;;5014248;28;20299;-51
2023/02/02 09:24:49;;;;;;;9.47;1.67;;;6.40;99.90;;;;;;5001635;27;20771;-47
2023/02/02 09:27:17;;;;;;;8.17;1.47;;;6.30;99.90;;;;;;5013168;28;20212;-50
2023/02/02 09:29:44;;;;;;;7.40;1.87;;;6.30;99.90;;;;;;5003804;27;20523;-52
2023/02/02 09:32:11;;;;;;;9.17;1.53;;;6.30;99.90;;;;;;5012049;28;20675;-51
2023/02/02 09:34:39;;;;;;;6.80;1.50;;;6.30;99.90;;;;;;5007608;28;20215;-53
2023/02/02 09:37:05;;;;;;;11.40;1.90;;;6.40;99.90;;;;;;5010399;28;20698;-50
2023/02/02 09:39:51;;;;;;;11.97;1.50;;;6.50;99.90;;;;;;4990734;27;20212;-51
2023/02/02 09:42:30;;;;;;;5.43;1.57;;;6.60;99.90;;;;;;5004469;28;20203;-48
2023/02/02 09:45:01;;;;;;;9.23;1.50;;;6.50;99.90;;;;;;5002927;28;20304;-53
2023/02/02 09:47:45;;;;;;;14.90;1.70;;;6.50;99.90;;;;;;5012281;28;20223;-53
2023/02/02 09:50:18;;;;;;;8.37;1.63;;;6.50;99.90;;;;;;5009542;28;20203;-49
2023/02/02 09:52:49;;;;;;;8.53;2.00;;;6.60;99.90;;;;;;5019774;27;20204;-55
2023/02/02 09:55:24;;;;;;;5.73;1.53;;;6.50;99.90;;;;;;5010037;28;20212;-51
2023/02/02 09:57:53;;;;;;;11.13;2.00;;;6.60;99.90;;;;;;5003537;28;20215;-49
2023/02/02 10:00:28;;;;;;;4.90;1.23;;;6.70;99.90;;;;;;5009608;28;20203;-51
2023/02/02 10:03:00;;;;;;;12.30;2.10;;;6.90;99.90;;;;;;5001669;28;20260;-47
2023/02/02 10:05:43;;;;;;;8.17;1.50;;;7.00;99.90;;;;;;5002662;28;20232;-52
2023/02/02 10:08:18;;;;;;;11.70;1.90;;;7.00;99.90;;;;;;4997313;27;20675;-48
2023/02/02 10:10:46;;;;;;;11.33;2.30;;;7.00;99.90;;;;;;5012529;28;20199;-52
2023/02/02 10:13:20;;;;;;;6.93;1.40;;;6.90;99.90;;;;;;5000471;28;20275;-51
2023/02/02 10:16:16;;;;;;;3.00;1.03;;;6.90;99.90;;;;;;5009104;28;20211;-52
2023/02/02 10:18:48;;;;;;;8.30;1.30;;;6.90;99.90;;;;;;4997184;28;20282;-52
2023/02/02 10:21:26;;;;;;;8.90;1.30;;;6.90;99.90;;;;;;5007023;28;20287;-51
2023/02/02 10:23:53;;;;;;;7.60;1.70;;;6.90;99.90;;;;;;4994420;27;20286;-51
2023/02/02 10:26:22;;;;;;;12.13;1.93;;;6.90;99.90;;;;;;5007732;28;20246;-48
2023/02/02 10:29:12;;;;;;;5.33;1.97;;;6.90;99.90;;;;;;4999360;28;20216;-49
2023/02/02 10:31:49;;;;;;;9.10;1.47;;;6.90;99.90;;;;;;5013391;28;20257;-53
2023/02/02 10:34:22;;;;;;;12.13;2.00;;;6.90;99.90;;;;;;5005344;28;20311;-47
2023/02/02 10:37:27;;;;;;;5.43;2.03;;;6.90;99.90;;;;;;5004414;27;20198;-50
2023/02/02 10:40:10;;;;;;;6.23;1.03;;;6.90;99.90;;;;;;5014295;28;20405;-50
2023/02/02 10:43:44;;;;;;;9.87;2.37;;;7.00;99.90;;;;;;5025820;28;20226;-54
2023/02/02 10:45:38;;;;;;;10.37;1.50;;;7.00;99.90;;;;;;5004003;28;20310;-53
2023/02/02 10:48:14;;;;;;;9.03;1.70;;;7.10;99.90;;;;;;5006477;28;20210;-49
2023/02/02 10:50:45;;;;;;;7.57;1.40;;;7.10;99.90;;;;;;4999971;28;20599;-51
2023/02/02 10:53:15;;;;;;;10.73;1.27;;;7.10;99.90;;;;;;5007518;28;20239;-51
2023/02/02 10:55:48;;;;;;;7.63;1.50;;;7.10;99.90;;;;;;4998397;28;20239;-52
2023/02/02 10:58:23;;;;;;;8.20;1.17;;;7.10;99.90;;;;;;5011064;28;20691;-47
2023/02/02 11:00:53;;;;;;;6.90;1.30;;;7.10;99.90;;;;;;5005514;28;20369;-50
2023/02/02 11:03:25;;;;;;;5.03;1.33;;;7.00;99.90;;;;;;5017845;28;20551;-48
2023/02/02 11:08:41;;;;;;;5.87;1.30;;;7.10;99.90;;;;;;5010182;28;20569;-50
2023/02/02 11:11:12;;;;;;;5.93;1.73;;;7.10;99.90;;;;;;5015009;27;20211;-47
2023/02/02 11:13:45;;;;;;;9.40;1.70;;;7.00;99.90;;;;;;5009491;28;20211;-52
2023/02/02 11:16:25;;;;;;;8.60;1.27;;;7.00;99.90;;;;;;5011185;28;20204;-51
2023/02/02 11:18:52;;;;;;;8.83;1.50;;;7.00;99.90;;;;;;5001220;28;20571;-50
2023/02/02 11:21:24;;;;;;;9.50;1.53;;;7.10;99.90;;;;;;5005761;28;20638;-53
2023/02/02 11:23:54;;;;;;;10.27;1.40;;;7.10;99.90;;;;;;5014360;27;20204;-48
2023/02/02 11:26:24;;;;;;;7.60;1.60;;;7.10;99.90;;;;;;4998763;27;20231;-50
2023/02/02 11:28:53;;;;;;;5.70;1.10;;;7.10;99.90;;;;;;5005600;28;20246;-51
2023/02/02 11:31:35;;;;;;;7.57;1.33;;;7.10;99.90;;;;;;5000366;28;20211;-54
2023/02/02 11:34:19;;;;;;;6.10;1.00;;;7.20;99.90;;;;;;5005021;28;20212;-51
2023/02/02 11:36:59;;;;;;;7.83;1.20;;;7.20;99.90;;;;;;4999152;28;20208;-52
2023/02/02 11:39:27;;;;;;;8.13;1.53;;;7.30;99.90;;;;;;5010333;28;20256;-50
2023/02/02 11:42:00;;;;;;;4.37;0.97;;;7.30;99.90;;;;;;4997615;28;20202;-53
2023/02/02 11:44:31;;;;;;;3.83;1.20;;;7.30;99.90;;;;;;5019098;28;20268;-52
2023/02/02 11:46:59;;;;;;;9.90;1.37;;;7.30;99.90;;;;;;5006543;28;20204;-49
2023/02/02 11:49:26;;;;;;;10.70;2.17;;;7.30;99.90;;;;;;5019270;27;20224;-51
2023/02/02 11:51:59;;;;;;;7.60;1.90;;;7.40;99.90;;;;;;5014701;27;20203;-50
2023/02/02 11:54:29;;;;;;;5.20;1.43;;;7.30;99.90;;;;;;5018714;27;20221;-51
2023/02/02 11:56:59;;;;;;;8.47;1.27;;;7.30;99.90;;;;;;5008684;27;22468;-50
2023/02/02 11:59:33;;;;;;;5.70;1.10;;;7.40;99.90;;;;;;5016229;28;20197;-53
2023/02/02 12:02:27;;;;;;;4.30;1.20;;;7.40;99.90;;;;;;5010289;28;20187;-52
2023/02/02 12:05:05;;;;;;;4.33;1.00;;;7.50;99.90;;;;;;5017577;27;20215;-49
2023/02/02 12:07:34;;;;;;;9.27;1.10;;;7.50;99.90;;;;;;5012711;28;20204;-53
2023/02/02 12:10:13;;;;;;;10.63;1.50;;;7.60;99.90;;;;;;5016626;28;20204;-48
2023/02/02 12:12:49;;;;;;;2.47;1.50;;;7.60;99.90;;;;;;5004310;27;20856;-52
2023/02/02 12:15:29;;;;;;;5.43;1.60;;;7.60;99.90;;;;;;5036116;27;20231;-48
2023/02/02 12:18:08;;;;;;;6.27;1.10;;;7.60;99.90;;;;;;5017063;28;20207;-47
2023/02/02 12:20:45;;;;;;;5.33;1.37;;;7.60;99.90;;;;;;5016472;27;20302;-54
2023/02/02 12:23:31;;;;;;;5.50;0.90;;;7.60;99.90;;;;;;5009814;28;20592;-49
2023/02/02 12:26:23;;;;;;;6.23;0.83;;;7.60;99.90;;;;;;5002920;28;20224;-48
2023/02/02 12:29:17;;;;;;;5.20;1.20;;;7.60;99.90;;;;;;5006545;27;20859;-50
2023/02/02 12:32:01;;;;;;;7.97;1.10;;;7.50;99.90;;;;;;5004543;27;20800;-51
2023/02/02 12:34:38;;;;;;;3.57;1.53;;;7.50;99.90;;;;;;5014266;28;20229;-54
2023/02/02 12:37:17;;;;;;;6.37;1.33;;;7.50;99.90;;;;;;5024410;27;20279;-47
2023/02/02 12:39:55;;;;;;;6.37;1.07;;;7.50;99.90;;;;;;5012133;27;20926;-50
2023/02/02 12:42:59;;;;;;;3.87;1.33;;;7.50;99.90;;;;;;5018448;28;20246;-51
2023/02/02 12:45:45;;;;;;;7.03;1.23;;;7.50;99.90;;;;;;5057515;28;20240;-55
2023/02/02 12:48:34;;;;;;;4.07;1.23;;;7.50;99.90;;;;;;5019972;28;20208;-48
2023/02/02 12:51:14;;;;;;;2.50;1.20;;;7.50;99.90;;;;;;5019426;27;20201;-48
2023/02/02 12:54:03;;;;;;;3.40;0.87;;;7.50;99.90;;;;;;5005960;28;20208;-51
2023/02/02 12:56:38;;;;;;;7.43;1.07;;;7.50;99.90;;;;;;5020667;27;20215;-53
2023/02/02 12:59:22;;;;;;;3.00;0.93;;;7.50;99.90;;;;;;5018121;28;20192;-47
2023/02/02 13:02:02;;;;;;;5.20;1.20;;;7.40;99.90;;;;;;5003587;27;22821;-47
2023/02/02 13:04:57;;;;;;;3.10;0.70;;;7.30;99.90;;;;;;5015354;28;20216;-54
2023/02/02 13:07:32;;;;;;;2.70;0.93;;;7.30;99.90;;;;;;5000375;28;20205;-53
2023/02/02 13:10:07;;;;;;;3.90;0.93;;;7.30;99.90;;;;;;5012304;27;20212;-47
2023/02/02 13:12:39;;;;;;;5.90;0.90;;;7.30;99.90;;;;;;5014017;28;20201;-53
2023/02/02 13:15:11;;;;;;;5.50;0.90;;;7.30;99.90;;;;;;5011043;27;20718;-48
2023/02/02 13:17:42;;;;;;;5.33;1.40;;;7.40;99.90;;;;;;5009258;28;20204;-52
2023/02/02 13:20:20;;;;;;;8.97;1.23;;;7.40;99.90;;;;;;5010088;28;20196;-50
2023/02/02 13:22:49;;;;;;;3.63;0.97;;;7.50;99.90;;;;;;5016238;27;20212;-47
2023/02/02 13:25:21;;;;;;;8.10;1.30;;;7.40;99.90;;;;;;5007547;28;20230;-49